sensor_id;sensor_type;location;lat;lon;timestamp;temperature;humidity
11818;DHT22;5966;52.402;5.322;2022-11-06T00:00:46;10.70;99.90
11818;DHT22;5966;52.402;5.322;2022-11-06T00:03:14;10.70;99.90
11818;DHT22;5966;52.402;5.322;2022-11-06T00:05:42;10.70;99.90
11818;DHT22;5966;52.402;5.322;2022-11-06T00:08:29;10.70;99.90
11818;DHT22;5966;52.402;5.322;2022-11-06T00:10:58;10.70;99.90
11818;DHT22;5966;52.402;5.322;2022-11-06T00:13:26;10.60;99.90
11818;DHT22;5966;52.402;5.322;2022-11-06T00:15:58;10.60;99.90
11818;DHT22;5966;52.402;5.322;2022-11-06T00:18:28;10.60;99.90
11818;DHT22;5966;52.402;5.322;2022-11-06T00:20:56;10.60;99.90
11818;DHT22;5966;52.402;5.322;2022-11-06T00:23:24;10.60;99.90
11818;DHT22;5966;52.402;5.322;2022-11-06T00:25:52;10.60;99.90
11818;DHT22;5966;52.402;5.322;2022-11-06T00:28:22;10.60;99.90
11818;DHT22;5966;52.402;5.322;2022-11-06T00:30:50;10.60;99.90
11818;DHT22;5966;52.402;5.322;2022-11-06T00:33:19;10.60;99.90
11818;DHT22;5966;52.402;5.322;2022-11-06T00:35:47;10.60;99.90
11818;DHT22;5966;52.402;5.322;2022-11-06T00:38:15;10.60;99.90
11818;DHT22;5966;52.402;5.322;2022-11-06T00:40:42;10.60;99.90
11818;DHT22;5966;52.402;5.322;2022-11-06T00:43:10;10.60;99.90
11818;DHT22;5966;52.402;5.322;2022-11-06T00:45:38;10.60;99.90
11818;DHT22;5966;52.402;5.322;2022-11-06T00:48:06;10.60;99.90
11818;DHT22;5966;52.402;5.322;2022-11-06T00:50:36;10.60;99.90
11818;DHT22;5966;52.402;5.322;2022-11-06T00:53:04;10.60;99.90
11818;DHT22;5966;52.402;5.322;2022-11-06T00:55:32;10.60;99.90
11818;DHT22;5966;52.402;5.322;2022-11-06T00:58:00;10.60;99.90
11818;DHT22;5966;52.402;5.322;2022-11-06T01:00:28;10.50;99.90
11818;DHT22;5966;52.402;5.322;2022-11-06T01:02:55;10.50;99.90
11818;DHT22;5966;52.402;5.322;2022-11-06T01:05:23;10.50;99.90
11818;DHT22;5966;52.402;5.322;2022-11-06T01:07:53;10.50;99.90
11818;DHT22;5966;52.402;5.322;2022-11-06T01:10:20;10.50;99.90
11818;DHT22;5966;52.402;5.322;2022-11-06T01:12:48;10.50;99.90
11818;DHT22;5966;52.402;5.322;2022-11-06T01:15:16;10.50;99.90
11818;DHT22;5966;52.402;5.322;2022-11-06T01:17:44;10.50;99.90
11818;DHT22;5966;52.402;5.322;2022-11-06T01:20:12;10.50;99.90
11818;DHT22;5966;52.402;5.322;2022-11-06T01:22:40;10.50;99.90
11818;DHT22;5966;52.402;5.322;2022-11-06T01:25:10;10.50;99.90
11818;DHT22;5966;52.402;5.322;2022-11-06T01:27:38;10.50;99.90
11818;DHT22;5966;52.402;5.322;2022-11-06T01:30:07;10.50;99.90
11818;DHT22;5966;52.402;5.322;2022-11-06T01:32:35;10.50;99.90
11818;DHT22;5966;52.402;5.322;2022-11-06T01:35:03;10.60;99.90
11818;DHT22;5966;52.402;5.322;2022-11-06T01:37:33;10.60;99.90
11818;DHT22;5966;52.402;5.322;2022-11-06T01:40:01;10.60;99.90
11818;DHT22;5966;52.402;5.322;2022-11-06T01:42:30;10.60;99.90
11818;DHT22;5966;52.402;5.322;2022-11-06T01:45:17;10.60;99.90
11818;DHT22;5966;52.402;5.322;2022-11-06T01:47:47;10.60;99.90
11818;DHT22;5966;52.402;5.322;2022-11-06T01:50:16;10.60;99.90
11818;DHT22;5966;52.402;5.322;2022-11-06T01:52:45;10.50;99.90
11818;DHT22;5966;52.402;5.322;2022-11-06T01:55:18;10.50;99.90
11818;DHT22;5966;52.402;5.322;2022-11-06T01:57:49;10.50;99.90
11818;DHT22;5966;52.402;5.322;2022-11-06T02:00:17;10.50;99.90
11818;DHT22;5966;52.402;5.322;2022-11-06T02:02:46;10.50;99.90
11818;DHT22;5966;52.402;5.322;2022-11-06T02:05:15;10.50;99.90
11818;DHT22;5966;52.402;5.322;2022-11-06T02:07:43;10.50;99.90
11818;DHT22;5966;52.402;5.322;2022-11-06T02:10:11;10.50;99.90
11818;DHT22;5966;52.402;5.322;2022-11-06T02:12:46;10.50;99.90
11818;DHT22;5966;52.402;5.322;2022-11-06T02:15:26;10.40;99.90
11818;DHT22;5966;52.402;5.322;2022-11-06T02:18:10;10.40;99.90
11818;DHT22;5966;52.402;5.322;2022-11-06T02:20:49;10.40;99.90
11818;DHT22;5966;52.402;5.322;2022-11-06T02:23:54;10.30;99.90
11818;DHT22;5966;52.402;5.322;2022-11-06T02:29:28;10.30;99.90
11818;DHT22;5966;52.402;5.322;2022-11-06T02:31:59;10.30;99.90
11818;DHT22;5966;52.402;5.322;2022-11-06T02:34:36;10.30;99.90
11818;DHT22;5966;52.402;5.322;2022-11-06T02:37:12;10.30;99.90
11818;DHT22;5966;52.402;5.322;2022-11-06T02:39:49;10.30;99.90
11818;DHT22;5966;52.402;5.322;2022-11-06T02:42:20;10.20;99.90
11818;DHT22;5966;52.402;5.322;2022-11-06T02:44:51;10.30;99.90
11818;DHT22;5966;52.402;5.322;2022-11-06T02:47:36;10.20;99.90
11818;DHT22;5966;52.402;5.322;2022-11-06T02:50:10;10.20;99.90
11818;DHT22;5966;52.402;5.322;2022-11-06T02:52:43;10.20;99.90
11818;DHT22;5966;52.402;5.322;2022-11-06T02:55:17;10.20;99.90
11818;DHT22;5966;52.402;5.322;2022-11-06T02:57:53;10.20;99.90
11818;DHT22;5966;52.402;5.322;2022-11-06T03:00:26;10.20;99.90
11818;DHT22;5966;52.402;5.322;2022-11-06T03:03:04;10.20;99.90
11818;DHT22;5966;52.402;5.322;2022-11-06T03:05:39;10.20;99.90
11818;DHT22;5966;52.402;5.322;2022-11-06T03:08:16;10.20;99.90
11818;DHT22;5966;52.402;5.322;2022-11-06T03:10:53;10.20;99.90
11818;DHT22;5966;52.402;5.322;2022-11-06T03:13:31;10.20;99.90
11818;DHT22;5966;52.402;5.322;2022-11-06T03:16:05;10.20;99.90
11818;DHT22;5966;52.402;5.322;2022-11-06T03:18:39;10.20;99.90
11818;DHT22;5966;52.402;5.322;2022-11-06T03:21:16;10.20;99.90
11818;DHT22;5966;52.402;5.322;2022-11-06T03:23:50;10.10;99.90
11818;DHT22;5966;52.402;5.322;2022-11-06T03:26:23;10.10;99.90
11818;DHT22;5966;52.402;5.322;2022-11-06T03:28:58;10.10;99.90
11818;DHT22;5966;52.402;5.322;2022-11-06T03:31:33;10.10;99.90
11818;DHT22;5966;52.402;5.322;2022-11-06T03:34:06;10.20;99.90
11818;DHT22;5966;52.402;5.322;2022-11-06T03:36:39;10.20;99.90
11818;DHT22;5966;52.402;5.322;2022-11-06T03:39:14;10.10;99.90
11818;DHT22;5966;52.402;5.322;2022-11-06T03:41:46;10.10;99.90
11818;DHT22;5966;52.402;5.322;2022-11-06T03:44:20;10.10;99.90
11818;DHT22;5966;52.402;5.322;2022-11-06T03:46:56;10.10;99.90
11818;DHT22;5966;52.402;5.322;2022-11-06T03:49:31;10.10;99.90
11818;DHT22;5966;52.402;5.322;2022-11-06T03:52:02;10.10;99.90
11818;DHT22;5966;52.402;5.322;2022-11-06T03:54:34;10.10;99.90
11818;DHT22;5966;52.402;5.322;2022-11-06T03:57:10;10.10;99.90
11818;DHT22;5966;52.402;5.322;2022-11-06T03:59:52;10.10;99.90
11818;DHT22;5966;52.402;5.322;2022-11-06T04:02:30;10.10;99.90
11818;DHT22;5966;52.402;5.322;2022-11-06T04:05:02;10.10;99.90
11818;DHT22;5966;52.402;5.322;2022-11-06T04:07:34;10.10;99.90
11818;DHT22;5966;52.402;5.322;2022-11-06T04:10:07;10.20;99.90
11818;DHT22;5966;52.402;5.322;2022-11-06T04:12:55;10.20;99.90
11818;DHT22;5966;52.402;5.322;2022-11-06T04:15:46;10.20;99.90
11818;DHT22;5966;52.402;5.322;2022-11-06T04:18:20;10.20;99.90
11818;DHT22;5966;52.402;5.322;2022-11-06T04:20:53;10.20;99.90
11818;DHT22;5966;52.402;5.322;2022-11-06T04:24:02;10.20;99.90
11818;DHT22;5966;52.402;5.322;2022-11-06T04:27:07;10.20;99.90
11818;DHT22;5966;52.402;5.322;2022-11-06T04:32:55;10.20;99.90
11818;DHT22;5966;52.402;5.322;2022-11-06T04:36:04;10.20;99.90
11818;DHT22;5966;52.402;5.322;2022-11-06T04:38:40;10.20;99.90
11818;DHT22;5966;52.402;5.322;2022-11-06T04:41:15;10.20;99.90
11818;DHT22;5966;52.402;5.322;2022-11-06T04:43:50;10.20;99.90
11818;DHT22;5966;52.402;5.322;2022-11-06T04:46:53;10.20;99.90
11818;DHT22;5966;52.402;5.322;2022-11-06T04:49:41;10.20;99.90
11818;DHT22;5966;52.402;5.322;2022-11-06T04:52:28;10.20;99.90
11818;DHT22;5966;52.402;5.322;2022-11-06T04:55:04;10.20;99.90
11818;DHT22;5966;52.402;5.322;2022-11-06T04:57:47;10.20;99.90
11818;DHT22;5966;52.402;5.322;2022-11-06T05:00:27;10.20;99.90
11818;DHT22;5966;52.402;5.322;2022-11-06T05:03:07;10.20;99.90
11818;DHT22;5966;52.402;5.322;2022-11-06T05:05:35;10.30;99.90
11818;DHT22;5966;52.402;5.322;2022-11-06T05:08:04;10.30;99.90
11818;DHT22;5966;52.402;5.322;2022-11-06T05:10:32;10.30;99.90
11818;DHT22;5966;52.402;5.322;2022-11-06T05:13:00;10.30;99.90
11818;DHT22;5966;52.402;5.322;2022-11-06T05:15:28;10.30;99.90
11818;DHT22;5966;52.402;5.322;2022-11-06T05:17:56;10.30;99.90
11818;DHT22;5966;52.402;5.322;2022-11-06T05:20:27;10.40;99.90
11818;DHT22;5966;52.402;5.322;2022-11-06T05:22:55;10.40;99.90
11818;DHT22;5966;52.402;5.322;2022-11-06T05:25:30;10.40;99.90
11818;DHT22;5966;52.402;5.322;2022-11-06T05:27:59;10.40;99.90
11818;DHT22;5966;52.402;5.322;2022-11-06T05:30:27;10.40;99.90
11818;DHT22;5966;52.402;5.322;2022-11-06T05:32:55;10.40;99.90
11818;DHT22;5966;52.402;5.322;2022-11-06T05:35:23;10.40;99.90
11818;DHT22;5966;52.402;5.322;2022-11-06T05:37:57;10.40;99.90
11818;DHT22;5966;52.402;5.322;2022-11-06T05:40:27;10.40;99.90
11818;DHT22;5966;52.402;5.322;2022-11-06T05:42:54;10.40;99.90
11818;DHT22;5966;52.402;5.322;2022-11-06T05:45:22;10.50;99.90
11818;DHT22;5966;52.402;5.322;2022-11-06T05:47:50;10.50;99.90
11818;DHT22;5966;52.402;5.322;2022-11-06T05:50:21;10.50;99.90
11818;DHT22;5966;52.402;5.322;2022-11-06T05:53:03;10.50;99.90
11818;DHT22;5966;52.402;5.322;2022-11-06T05:55:32;10.50;99.90
11818;DHT22;5966;52.402;5.322;2022-11-06T05:58:00;10.50;99.90
11818;DHT22;5966;52.402;5.322;2022-11-06T06:00:38;10.50;99.90
11818;DHT22;5966;52.402;5.322;2022-11-06T06:03:23;10.50;99.90
11818;DHT22;5966;52.402;5.322;2022-11-06T06:05:53;10.50;99.90
11818;DHT22;5966;52.402;5.322;2022-11-06T06:08:44;10.50;99.90
11818;DHT22;5966;52.402;5.322;2022-11-06T06:11:41;10.50;99.90
11818;DHT22;5966;52.402;5.322;2022-11-06T06:14:08;10.50;99.90
11818;DHT22;5966;52.402;5.322;2022-11-06T06:16:36;10.40;99.90
11818;DHT22;5966;52.402;5.322;2022-11-06T06:19:27;10.40;99.90
11818;DHT22;5966;52.402;5.322;2022-11-06T06:21:57;10.40;99.90
11818;DHT22;5966;52.402;5.322;2022-11-06T06:24:56;10.40;99.90
11818;DHT22;5966;52.402;5.322;2022-11-06T06:27:26;10.40;99.90
11818;DHT22;5966;52.402;5.322;2022-11-06T06:29:55;10.40;99.90
11818;DHT22;5966;52.402;5.322;2022-11-06T06:32:23;10.40;99.90
11818;DHT22;5966;52.402;5.322;2022-11-06T06:34:52;10.30;99.90
11818;DHT22;5966;52.402;5.322;2022-11-06T06:37:20;10.30;99.90
11818;DHT22;5966;52.402;5.322;2022-11-06T06:39:48;10.30;99.90
11818;DHT22;5966;52.402;5.322;2022-11-06T06:42:16;10.30;99.90
11818;DHT22;5966;52.402;5.322;2022-11-06T06:44:46;10.30;99.90
11818;DHT22;5966;52.402;5.322;2022-11-06T06:47:14;10.30;99.90
11818;DHT22;5966;52.402;5.322;2022-11-06T06:49:42;10.30;99.90
11818;DHT22;5966;52.402;5.322;2022-11-06T06:52:11;10.30;99.90
11818;DHT22;5966;52.402;5.322;2022-11-06T06:54:39;10.30;99.90
11818;DHT22;5966;52.402;5.322;2022-11-06T06:57:07;10.20;99.90
11818;DHT22;5966;52.402;5.322;2022-11-06T06:59:35;10.20;99.90
11818;DHT22;5966;52.402;5.322;2022-11-06T07:02:05;10.20;99.90
11818;DHT22;5966;52.402;5.322;2022-11-06T07:04:33;10.30;99.90
11818;DHT22;5966;52.402;5.322;2022-11-06T07:07:00;10.30;99.90
11818;DHT22;5966;52.402;5.322;2022-11-06T07:09:29;10.30;99.90
11818;DHT22;5966;52.402;5.322;2022-11-06T07:11:57;10.30;99.90
11818;DHT22;5966;52.402;5.322;2022-11-06T07:14:26;10.30;99.90
11818;DHT22;5966;52.402;5.322;2022-11-06T07:16:56;10.30;99.90
11818;DHT22;5966;52.402;5.322;2022-11-06T07:19:26;10.30;99.90
11818;DHT22;5966;52.402;5.322;2022-11-06T07:22:27;10.30;99.90
11818;DHT22;5966;52.402;5.322;2022-11-06T07:25:12;10.30;99.90
11818;DHT22;5966;52.402;5.322;2022-11-06T07:27:50;10.30;99.90
11818;DHT22;5966;52.402;5.322;2022-11-06T07:30:29;10.30;99.90
11818;DHT22;5966;52.402;5.322;2022-11-06T07:33:16;10.40;99.90
11818;DHT22;5966;52.402;5.322;2022-11-06T07:35:48;10.40;99.90
11818;DHT22;5966;52.402;5.322;2022-11-06T07:38:32;10.40;99.90
11818;DHT22;5966;52.402;5.322;2022-11-06T07:41:07;10.40;99.90
11818;DHT22;5966;52.402;5.322;2022-11-06T07:43:39;10.40;99.90
11818;DHT22;5966;52.402;5.322;2022-11-06T07:46:10;10.50;99.90
11818;DHT22;5966;52.402;5.322;2022-11-06T07:48:45;10.50;99.90
11818;DHT22;5966;52.402;5.322;2022-11-06T07:51:14;10.50;99.90
11818;DHT22;5966;52.402;5.322;2022-11-06T07:53:42;10.50;99.90
11818;DHT22;5966;52.402;5.322;2022-11-06T07:56:29;10.50;99.90
11818;DHT22;5966;52.402;5.322;2022-11-06T07:59:04;10.60;99.90
11818;DHT22;5966;52.402;5.322;2022-11-06T08:01:32;10.60;99.90
11818;DHT22;5966;52.402;5.322;2022-11-06T08:04:01;10.60;99.90
11818;DHT22;5966;52.402;5.322;2022-11-06T08:06:55;10.60;99.90
11818;DHT22;5966;52.402;5.322;2022-11-06T08:09:25;10.60;99.90
11818;DHT22;5966;52.402;5.322;2022-11-06T08:11:52;10.60;99.90
11818;DHT22;5966;52.402;5.322;2022-11-06T08:14:25;10.70;99.90
11818;DHT22;5966;52.402;5.322;2022-11-06T08:16:57;10.70;99.90
11818;DHT22;5966;52.402;5.322;2022-11-06T08:19:29;10.80;99.90
11818;DHT22;5966;52.402;5.322;2022-11-06T08:22:04;10.80;99.90
11818;DHT22;5966;52.402;5.322;2022-11-06T08:24:39;10.80;99.90
11818;DHT22;5966;52.402;5.322;2022-11-06T08:27:23;10.90;99.90
11818;DHT22;5966;52.402;5.322;2022-11-06T08:30:17;10.90;99.90
11818;DHT22;5966;52.402;5.322;2022-11-06T08:32:47;11.00;99.90
11818;DHT22;5966;52.402;5.322;2022-11-06T08:35:25;11.00;99.90
11818;DHT22;5966;52.402;5.322;2022-11-06T08:38:11;11.10;99.90
11818;DHT22;5966;52.402;5.322;2022-11-06T08:40:40;11.10;99.90
11818;DHT22;5966;52.402;5.322;2022-11-06T08:43:10;11.20;99.90
11818;DHT22;5966;52.402;5.322;2022-11-06T08:45:41;11.10;99.90
11818;DHT22;5966;52.402;5.322;2022-11-06T08:48:11;11.20;99.90
11818;DHT22;5966;52.402;5.322;2022-11-06T08:50:42;11.20;99.90
11818;DHT22;5966;52.402;5.322;2022-11-06T08:53:14;11.20;99.90
11818;DHT22;5966;52.402;5.322;2022-11-06T08:55:43;11.20;99.90
11818;DHT22;5966;52.402;5.322;2022-11-06T08:58:14;11.30;99.90
11818;DHT22;5966;52.402;5.322;2022-11-06T09:00:43;11.30;99.90
11818;DHT22;5966;52.402;5.322;2022-11-06T09:03:15;11.30;99.90
11818;DHT22;5966;52.402;5.322;2022-11-06T09:05:51;11.40;99.90
11818;DHT22;5966;52.402;5.322;2022-11-06T09:08:20;11.50;99.90
11818;DHT22;5966;52.402;5.322;2022-11-06T09:10:50;11.50;99.90
11818;DHT22;5966;52.402;5.322;2022-11-06T09:13:26;11.60;99.90
11818;DHT22;5966;52.402;5.322;2022-11-06T09:15:58;11.70;99.90
11818;DHT22;5966;52.402;5.322;2022-11-06T09:18:30;11.70;99.90
11818;DHT22;5966;52.402;5.322;2022-11-06T09:20:58;11.80;99.90
11818;DHT22;5966;52.402;5.322;2022-11-06T09:23:28;11.90;99.90
11818;DHT22;5966;52.402;5.322;2022-11-06T09:26:21;11.90;99.90
11818;DHT22;5966;52.402;5.322;2022-11-06T09:29:03;11.90;99.90
11818;DHT22;5966;52.402;5.322;2022-11-06T09:31:33;11.90;99.90
11818;DHT22;5966;52.402;5.322;2022-11-06T09:34:03;11.90;99.90
11818;DHT22;5966;52.402;5.322;2022-11-06T09:36:31;12.00;99.90
11818;DHT22;5966;52.402;5.322;2022-11-06T09:39:04;12.00;99.90
11818;DHT22;5966;52.402;5.322;2022-11-06T09:41:39;12.00;99.90
11818;DHT22;5966;52.402;5.322;2022-11-06T09:44:27;12.00;99.90
11818;DHT22;5966;52.402;5.322;2022-11-06T09:46:59;12.00;99.90
11818;DHT22;5966;52.402;5.322;2022-11-06T09:49:32;12.00;99.90
11818;DHT22;5966;52.402;5.322;2022-11-06T09:52:06;12.00;99.90
11818;DHT22;5966;52.402;5.322;2022-11-06T09:54:45;12.00;99.90
11818;DHT22;5966;52.402;5.322;2022-11-06T09:57:38;12.00;99.90
11818;DHT22;5966;52.402;5.322;2022-11-06T10:00:21;12.00;99.90
11818;DHT22;5966;52.402;5.322;2022-11-06T10:03:03;12.00;99.90
11818;DHT22;5966;52.402;5.322;2022-11-06T10:05:36;12.10;99.90
11818;DHT22;5966;52.402;5.322;2022-11-06T10:08:10;12.10;99.90
11818;DHT22;5966;52.402;5.322;2022-11-06T10:10:48;12.10;99.90
11818;DHT22;5966;52.402;5.322;2022-11-06T10:13:36;12.10;99.90
11818;DHT22;5966;52.402;5.322;2022-11-06T10:16:13;12.20;99.90
11818;DHT22;5966;52.402;5.322;2022-11-06T10:18:55;12.20;99.90
11818;DHT22;5966;52.402;5.322;2022-11-06T10:21:39;12.30;99.90
11818;DHT22;5966;52.402;5.322;2022-11-06T10:24:20;12.30;99.90
11818;DHT22;5966;52.402;5.322;2022-11-06T10:26:55;12.30;99.90
11818;DHT22;5966;52.402;5.322;2022-11-06T10:30:04;12.30;99.90
11818;DHT22;5966;52.402;5.322;2022-11-06T10:32:53;12.30;99.90
11818;DHT22;5966;52.402;5.322;2022-11-06T10:35:27;12.20;99.90
11818;DHT22;5966;52.402;5.322;2022-11-06T10:38:13;12.20;99.90
11818;DHT22;5966;52.402;5.322;2022-11-06T10:40:47;12.20;99.90
11818;DHT22;5966;52.402;5.322;2022-11-06T10:43:26;12.20;99.90
11818;DHT22;5966;52.402;5.322;2022-11-06T10:46:05;12.10;99.90
11818;DHT22;5966;52.402;5.322;2022-11-06T10:48:38;12.10;99.90
11818;DHT22;5966;52.402;5.322;2022-11-06T10:51:27;12.00;99.90
11818;DHT22;5966;52.402;5.322;2022-11-06T10:54:10;12.00;99.90
11818;DHT22;5966;52.402;5.322;2022-11-06T10:56:52;12.00;99.90
11818;DHT22;5966;52.402;5.322;2022-11-06T10:59:44;12.00;99.90
11818;DHT22;5966;52.402;5.322;2022-11-06T11:02:28;12.00;99.90
11818;DHT22;5966;52.402;5.322;2022-11-06T11:04:57;12.00;99.90
11818;DHT22;5966;52.402;5.322;2022-11-06T11:07:30;12.00;99.90
11818;DHT22;5966;52.402;5.322;2022-11-06T11:10:24;12.10;99.90
11818;DHT22;5966;52.402;5.322;2022-11-06T11:13:00;12.10;99.90
11818;DHT22;5966;52.402;5.322;2022-11-06T11:15:46;12.10;99.90
11818;DHT22;5966;52.402;5.322;2022-11-06T11:18:18;12.20;99.90
11818;DHT22;5966;52.402;5.322;2022-11-06T11:21:00;12.20;99.90
11818;DHT22;5966;52.402;5.322;2022-11-06T11:23:33;12.20;99.90
11818;DHT22;5966;52.402;5.322;2022-11-06T11:26:21;12.20;99.90
11818;DHT22;5966;52.402;5.322;2022-11-06T11:28:53;12.20;99.90
11818;DHT22;5966;52.402;5.322;2022-11-06T11:31:29;12.20;99.90
11818;DHT22;5966;52.402;5.322;2022-11-06T11:34:04;12.20;99.90
11818;DHT22;5966;52.402;5.322;2022-11-06T11:36:58;12.20;99.90
11818;DHT22;5966;52.402;5.322;2022-11-06T11:39:32;12.20;99.90
11818;DHT22;5966;52.402;5.322;2022-11-06T11:42:41;12.20;99.90
11818;DHT22;5966;52.402;5.322;2022-11-06T11:45:16;12.20;99.90
11818;DHT22;5966;52.402;5.322;2022-11-06T11:48:20;12.20;99.90
11818;DHT22;5966;52.402;5.322;2022-11-06T11:50:52;12.20;99.90
11818;DHT22;5966;52.402;5.322;2022-11-06T11:53:26;12.20;99.90
11818;DHT22;5966;52.402;5.322;2022-11-06T11:56:26;12.20;99.90
11818;DHT22;5966;52.402;5.322;2022-11-06T11:59:30;12.10;99.90
11818;DHT22;5966;52.402;5.322;2022-11-06T12:02:41;12.10;99.90
11818;DHT22;5966;52.402;5.322;2022-11-06T12:05:33;12.00;99.90
11818;DHT22;5966;52.402;5.322;2022-11-06T12:10:44;12.00;99.90
11818;DHT22;5966;52.402;5.322;2022-11-06T12:13:27;12.00;99.90
11818;DHT22;5966;52.402;5.322;2022-11-06T12:16:01;11.90;99.90
11818;DHT22;5966;52.402;5.322;2022-11-06T12:19:00;12.00;99.90
11818;DHT22;5966;52.402;5.322;2022-11-06T12:21:43;12.00;99.90
11818;DHT22;5966;52.402;5.322;2022-11-06T12:25:14;12.00;99.90
11818;DHT22;5966;52.402;5.322;2022-11-06T12:28:23;12.00;99.90
11818;DHT22;5966;52.402;5.322;2022-11-06T12:30:59;12.00;99.90
11818;DHT22;5966;52.402;5.322;2022-11-06T12:33:30;12.00;99.90
11818;DHT22;5966;52.402;5.322;2022-11-06T12:36:21;12.00;99.90
11818;DHT22;5966;52.402;5.322;2022-11-06T12:38:56;12.10;99.90
11818;DHT22;5966;52.402;5.322;2022-11-06T12:41:29;12.10;99.90
11818;DHT22;5966;52.402;5.322;2022-11-06T12:43:57;12.10;99.90
11818;DHT22;5966;52.402;5.322;2022-11-06T12:46:38;12.10;99.90
11818;DHT22;5966;52.402;5.322;2022-11-06T12:49:53;12.10;99.90
11818;DHT22;5966;52.402;5.322;2022-11-06T12:52:33;12.20;99.90
11818;DHT22;5966;52.402;5.322;2022-11-06T12:55:19;12.20;99.90
11818;DHT22;5966;52.402;5.322;2022-11-06T12:58:08;12.20;99.90
11818;DHT22;5966;52.402;5.322;2022-11-06T13:00:49;12.20;99.90
11818;DHT22;5966;52.402;5.322;2022-11-06T13:03:32;12.20;99.90
11818;DHT22;5966;52.402;5.322;2022-11-06T13:06:05;12.10;99.90
11818;DHT22;5966;52.402;5.322;2022-11-06T13:08:44;12.10;99.90
11818;DHT22;5966;52.402;5.322;2022-11-06T13:11:24;12.00;99.90
11818;DHT22;5966;52.402;5.322;2022-11-06T13:14:13;12.10;99.90
11818;DHT22;5966;52.402;5.322;2022-11-06T13:16:50;12.00;99.90
11818;DHT22;5966;52.402;5.322;2022-11-06T13:19:27;12.00;99.90
11818;DHT22;5966;52.402;5.322;2022-11-06T13:22:20;12.00;99.90
11818;DHT22;5966;52.402;5.322;2022-11-06T13:24:54;12.00;99.90
11818;DHT22;5966;52.402;5.322;2022-11-06T13:27:32;12.00;99.90
11818;DHT22;5966;52.402;5.322;2022-11-06T13:30:04;12.00;99.90
11818;DHT22;5966;52.402;5.322;2022-11-06T13:32:35;12.00;99.90
11818;DHT22;5966;52.402;5.322;2022-11-06T13:35:04;11.90;99.90
11818;DHT22;5966;52.402;5.322;2022-11-06T13:37:43;11.90;99.90
11818;DHT22;5966;52.402;5.322;2022-11-06T13:40:21;11.90;99.90
11818;DHT22;5966;52.402;5.322;2022-11-06T13:42:56;11.80;99.90
11818;DHT22;5966;52.402;5.322;2022-11-06T13:45:28;11.80;99.90
11818;DHT22;5966;52.402;5.322;2022-11-06T13:48:13;11.80;99.90
11818;DHT22;5966;52.402;5.322;2022-11-06T13:50:49;11.70;99.90
11818;DHT22;5966;52.402;5.322;2022-11-06T13:53:22;11.70;99.90
11818;DHT22;5966;52.402;5.322;2022-11-06T13:56:01;11.70;99.90
11818;DHT22;5966;52.402;5.322;2022-11-06T13:58:54;11.60;99.90
11818;DHT22;5966;52.402;5.322;2022-11-06T14:04:41;11.40;99.90
11818;DHT22;5966;52.402;5.322;2022-11-06T14:07:20;11.40;99.90
11818;DHT22;5966;52.402;5.322;2022-11-06T14:09:48;11.30;99.90
11818;DHT22;5966;52.402;5.322;2022-11-06T14:12:19;11.30;99.90
11818;DHT22;5966;52.402;5.322;2022-11-06T14:15:12;11.20;99.90
11818;DHT22;5966;52.402;5.322;2022-11-06T14:18:01;11.20;99.90
11818;DHT22;5966;52.402;5.322;2022-11-06T14:20:31;11.10;99.90
11818;DHT22;5966;52.402;5.322;2022-11-06T14:26:38;11.00;99.90
11818;DHT22;5966;52.402;5.322;2022-11-06T14:32:45;10.90;99.90
11818;DHT22;5966;52.402;5.322;2022-11-06T14:35:48;10.80;99.90
11818;DHT22;5966;52.402;5.322;2022-11-06T14:38:32;10.80;99.90
11818;DHT22;5966;52.402;5.322;2022-11-06T14:47:02;10.70;99.90
11818;DHT22;5966;52.402;5.322;2022-11-06T14:49:47;10.60;99.90
11818;DHT22;5966;52.402;5.322;2022-11-06T14:52:24;10.60;99.90
11818;DHT22;5966;52.402;5.322;2022-11-06T14:54:58;10.60;99.90
11818;DHT22;5966;52.402;5.322;2022-11-06T14:57:44;10.60;99.90
11818;DHT22;5966;52.402;5.322;2022-11-06T15:00:35;10.50;99.90
11818;DHT22;5966;52.402;5.322;2022-11-06T15:03:17;10.50;99.90
11818;DHT22;5966;52.402;5.322;2022-11-06T15:05:58;10.40;99.90
11818;DHT22;5966;52.402;5.322;2022-11-06T15:08:59;10.40;99.90
11818;DHT22;5966;52.402;5.322;2022-11-06T15:12:02;10.40;99.90
11818;DHT22;5966;52.402;5.322;2022-11-06T15:15:04;10.30;99.90
11818;DHT22;5966;52.402;5.322;2022-11-06T15:17:43;10.30;99.90
11818;DHT22;5966;52.402;5.322;2022-11-06T15:20:24;10.20;99.90
11818;DHT22;5966;52.402;5.322;2022-11-06T15:23:23;10.20;99.90
11818;DHT22;5966;52.402;5.322;2022-11-06T15:26:05;10.20;99.90
11818;DHT22;5966;52.402;5.322;2022-11-06T15:29:03;10.20;99.90
11818;DHT22;5966;52.402;5.322;2022-11-06T15:31:44;10.20;99.90
11818;DHT22;5966;52.402;5.322;2022-11-06T15:34:43;10.10;99.90
11818;DHT22;5966;52.402;5.322;2022-11-06T15:37:15;10.00;99.90
11818;DHT22;5966;52.402;5.322;2022-11-06T15:40:20;10.00;99.90
11818;DHT22;5966;52.402;5.322;2022-11-06T15:42:53;10.00;99.90
11818;DHT22;5966;52.402;5.322;2022-11-06T15:45:23;10.00;99.90
11818;DHT22;5966;52.402;5.322;2022-11-06T15:47:53;10.00;99.90
11818;DHT22;5966;52.402;5.322;2022-11-06T15:50:23;10.00;99.90
11818;DHT22;5966;52.402;5.322;2022-11-06T15:52:52;9.90;99.90
11818;DHT22;5966;52.402;5.322;2022-11-06T15:55:27;9.90;99.90
11818;DHT22;5966;52.402;5.322;2022-11-06T15:58:05;9.80;99.90
11818;DHT22;5966;52.402;5.322;2022-11-06T16:00:35;9.80;99.90
11818;DHT22;5966;52.402;5.322;2022-11-06T16:03:04;9.80;99.90
11818;DHT22;5966;52.402;5.322;2022-11-06T16:05:34;9.80;99.90
11818;DHT22;5966;52.402;5.322;2022-11-06T16:08:04;9.80;99.90
11818;DHT22;5966;52.402;5.322;2022-11-06T16:10:37;9.70;99.90
11818;DHT22;5966;52.402;5.322;2022-11-06T16:13:08;9.70;99.90
11818;DHT22;5966;52.402;5.322;2022-11-06T16:15:49;9.60;99.90
11818;DHT22;5966;52.402;5.322;2022-11-06T16:18:21;9.50;99.90
11818;DHT22;5966;52.402;5.322;2022-11-06T16:20:52;9.50;99.90
11818;DHT22;5966;52.402;5.322;2022-11-06T16:23:24;9.40;99.90
11818;DHT22;5966;52.402;5.322;2022-11-06T16:26:06;9.40;99.90
11818;DHT22;5966;52.402;5.322;2022-11-06T16:28:35;9.30;99.90
11818;DHT22;5966;52.402;5.322;2022-11-06T16:31:12;9.30;99.90
11818;DHT22;5966;52.402;5.322;2022-11-06T16:33:52;9.30;99.90
11818;DHT22;5966;52.402;5.322;2022-11-06T16:36:20;9.30;99.90
11818;DHT22;5966;52.402;5.322;2022-11-06T16:38:51;9.20;99.90
11818;DHT22;5966;52.402;5.322;2022-11-06T16:41:58;9.20;99.90
11818;DHT22;5966;52.402;5.322;2022-11-06T16:44:25;9.20;99.90
11818;DHT22;5966;52.402;5.322;2022-11-06T16:47:14;9.10;99.90
11818;DHT22;5966;52.402;5.322;2022-11-06T16:49:44;9.10;99.90
11818;DHT22;5966;52.402;5.322;2022-11-06T16:52:23;9.10;99.90
11818;DHT22;5966;52.402;5.322;2022-11-06T16:54:54;9.10;99.90
11818;DHT22;5966;52.402;5.322;2022-11-06T16:57:26;9.10;99.90
11818;DHT22;5966;52.402;5.322;2022-11-06T17:00:01;9.00;99.90
11818;DHT22;5966;52.402;5.322;2022-11-06T17:02:32;9.00;99.90
11818;DHT22;5966;52.402;5.322;2022-11-06T17:05:10;9.00;99.90
11818;DHT22;5966;52.402;5.322;2022-11-06T17:07:38;9.00;99.90
11818;DHT22;5966;52.402;5.322;2022-11-06T17:10:34;9.00;99.90
11818;DHT22;5966;52.402;5.322;2022-11-06T17:13:11;9.00;99.90